createdAt,value
2019-03-21T00:02:07.820Z,44.91
2019-03-21T00:06:16.343Z,43.11
2019-03-21T00:10:35.785Z,43.52
2019-03-21T00:15:01.633Z,45.81
2019-03-21T00:19:07.327Z,44.76
2019-03-21T00:23:13.020Z,43.64
2019-03-21T00:27:18.707Z,44.90
2019-03-21T00:31:24.515Z,41.97
2019-03-21T00:35:30.353Z,45.28
2019-03-21T00:39:36.028Z,46.29
2019-03-21T00:43:41.720Z,45.76
2019-03-21T00:47:47.992Z,46.09
2019-03-21T00:51:53.686Z,45.29
2019-03-21T00:56:00.945Z,44.91
2019-03-21T01:00:24.072Z,44.03
2019-03-21T01:04:30.200Z,48.80
2019-03-21T01:08:35.933Z,42.69
2019-03-21T01:12:41.633Z,44.61
2019-03-21T01:16:47.326Z,45.55
2019-03-21T01:20:53.022Z,47.25
2019-03-21T01:24:58.699Z,46.64
2019-03-21T01:29:04.509Z,45.87
2019-03-21T01:33:10.193Z,45.38
2019-03-21T01:37:15.917Z,44.52
2019-03-21T01:41:21.718Z,43.95
2019-03-21T01:45:27.789Z,42.43
2019-03-21T01:53:37.146Z,44.04
2019-03-21T01:57:43.060Z,43.96
2019-03-21T02:01:48.750Z,45.90
2019-03-21T02:05:54.427Z,48.75
2019-03-21T02:10:00.352Z,47.91
2019-03-21T02:14:06.102Z,45.77
2019-03-21T02:18:11.855Z,47.48
2019-03-21T02:22:17.630Z,47.06
2019-03-21T02:26:23.332Z,45.35
2019-03-21T02:30:50.325Z,49.37
2019-03-21T02:34:56.082Z,46.95
2019-03-21T02:39:01.796Z,45.95
2019-03-21T02:43:09.082Z,47.70
2019-03-21T02:47:14.832Z,50.38
2019-03-21T02:51:20.515Z,46.15
2019-03-21T02:55:26.607Z,46.42
2019-03-21T02:59:32.300Z,48.38
2019-03-21T03:03:37.956Z,46.50
2019-03-21T03:07:43.627Z,48.66
2019-03-21T03:11:51.160Z,48.82
2019-03-21T03:15:56.839Z,49.04
2019-03-21T03:20:02.692Z,51.17
2019-03-21T03:24:08.358Z,49.37
2019-03-21T03:28:39.435Z,51.49
2019-03-21T03:32:45.124Z,47.20
2019-03-21T03:36:50.811Z,49.89
2019-03-21T03:41:06.111Z,47.92
2019-03-21T03:45:16.977Z,50.44
2019-03-21T03:49:22.656Z,45.80
2019-03-21T03:53:28.334Z,45.62
2019-03-21T03:57:34.319Z,48.62
2019-03-21T04:01:40.144Z,49.35
2019-03-21T04:05:45.882Z,48.04
2019-03-21T04:09:51.997Z,45.45
2019-03-21T04:13:57.715Z,44.83
2019-03-21T04:18:03.536Z,45.18
2019-03-21T04:22:09.231Z,49.20
2019-03-21T04:26:33.630Z,43.50
2019-03-21T04:30:39.329Z,47.16
2019-03-21T04:34:45.011Z,46.21
2019-03-21T04:38:50.722Z,48.03
2019-03-21T04:42:56.397Z,48.64
2019-03-21T04:47:02.065Z,48.97
2019-03-21T04:51:07.760Z,50.95
2019-03-21T04:55:17.718Z,49.80
2019-03-21T04:59:23.396Z,50.10
2019-03-21T05:03:31.861Z,47.02
2019-03-21T05:07:37.558Z,46.20
2019-03-21T05:11:43.246Z,47.74
2019-03-21T05:15:51.440Z,50.41
2019-03-21T05:19:57.158Z,51.38
2019-03-21T05:24:02.847Z,44.52
2019-03-21T05:28:10.069Z,48.01
2019-03-21T05:32:15.748Z,50.56
2019-03-21T05:36:21.517Z,49.61
2019-03-21T05:40:27.285Z,45.65
2019-03-21T05:44:37.406Z,54.40
2019-03-21T05:48:43.074Z,48.13
2019-03-21T05:52:48.752Z,49.27
2019-03-21T05:56:54.445Z,48.79
2019-03-21T06:01:11.765Z,47.25
2019-03-21T06:05:17.503Z,49.04
2019-03-21T06:09:23.824Z,44.71
2019-03-21T06:13:29.584Z,51.24
2019-03-21T06:17:35.260Z,51.19
2019-03-21T06:22:12.333Z,43.40
2019-03-21T06:26:46.049Z,45.19
2019-03-21T06:30:51.733Z,41.99
2019-03-21T06:34:58.422Z,46.01
2019-03-21T06:39:05.610Z,44.06
2019-03-21T06:43:11.311Z,45.33
2019-03-21T06:47:16.996Z,44.87
2019-03-21T06:51:22.688Z,48.21
2019-03-21T06:55:28.340Z,43.87
2019-03-21T06:59:34.026Z,41.65
2019-03-21T07:03:39.720Z,43.26
2019-03-21T07:07:45.408Z,39.58
2019-03-21T07:11:51.118Z,39.65
2019-03-21T07:15:56.795Z,37.81
2019-03-21T07:20:02.489Z,37.80
2019-03-21T07:24:09.143Z,39.65
2019-03-21T07:28:14.846Z,36.62
2019-03-21T07:32:20.682Z,35.94
2019-03-21T07:36:26.464Z,32.21
2019-03-21T07:40:32.160Z,33.90
2019-03-21T07:44:37.845Z,34.46
2019-03-21T07:48:43.552Z,34.74
2019-03-21T07:52:49.248Z,33.56
2019-03-21T07:56:54.932Z,33.32
2019-03-21T08:01:01.772Z,32.97
2019-03-21T08:05:09.468Z,28.20
2019-03-21T08:09:15.225Z,28.47
2019-03-21T08:13:20.915Z,27.05
2019-03-21T08:17:26.606Z,30.46
2019-03-21T08:21:32.306Z,28.89
2019-03-21T08:25:38.074Z,25.61
2019-03-21T08:29:43.766Z,26.21
2019-03-21T08:33:49.539Z,25.35
2019-03-21T08:37:55.236Z,24.05
2019-03-21T08:42:00.945Z,24.55
2019-03-21T08:46:06.644Z,23.11
2019-03-21T08:50:13.114Z,22.49
2019-03-21T08:54:18.852Z,23.49
2019-03-21T08:58:24.539Z,21.98
2019-03-21T09:02:30.230Z,23.63
2019-03-21T09:06:35.943Z,23.29
2019-03-21T09:10:41.637Z,22.34
2019-03-21T09:14:47.321Z,19.51
2019-03-21T09:18:53.018Z,23.71
2019-03-21T09:22:58.707Z,19.44
2019-03-21T09:27:04.469Z,19.29
2019-03-21T09:31:10.155Z,20.05
2019-03-21T09:35:15.856Z,17.95
2019-03-21T09:39:21.545Z,18.83
2019-03-21T09:43:27.297Z,20.05
2019-03-21T09:47:32.999Z,20.08
2019-03-21T09:51:38.714Z,21.49
2019-03-21T09:55:44.431Z,22.26
2019-03-21T09:59:50.191Z,21.59
2019-03-21T10:03:55.884Z,23.68
2019-03-21T10:08:02.288Z,23.59
2019-03-21T10:12:07.966Z,23.08
2019-03-21T10:16:13.729Z,24.64
2019-03-21T10:20:19.447Z,24.54
2019-03-21T10:24:25.166Z,24.42
2019-03-21T10:28:30.843Z,21.00
2019-03-21T10:32:36.563Z,20.83
2019-03-21T10:36:42.224Z,21.37
2019-03-21T10:40:48.002Z,19.42
2019-03-21T10:44:53.700Z,18.30
2019-03-21T10:49:00.990Z,18.64
2019-03-21T10:53:07.817Z,17.35
2019-03-21T10:57:13.509Z,17.40
2019-03-21T11:06:13.015Z,16.73
2019-03-21T11:10:18.822Z,18.54
2019-03-21T11:14:24.566Z,15.15
2019-03-21T11:18:35.991Z,14.86
2019-03-21T11:22:37.708Z,15.92
2019-03-21T11:26:43.504Z,14.10
2019-03-21T11:30:49.168Z,14.85
2019-03-21T11:34:56.377Z,14.40
2019-03-21T11:39:02.151Z,13.86
2019-03-21T11:43:09.296Z,12.87
2019-03-21T11:47:15.066Z,14.31
2019-03-21T11:51:20.809Z,12.50
2019-03-21T11:55:26.510Z,12.45
2019-03-21T11:59:46.170Z,12.72
2019-03-21T12:03:39.675Z,12.34
2019-03-21T12:07:45.363Z,13.49
2019-03-21T12:11:51.047Z,14.88
2019-03-21T12:15:56.736Z,16.46
2019-03-21T12:20:02.426Z,15.69
2019-03-21T12:24:08.126Z,15.25
2019-03-21T12:28:13.825Z,14.99
2019-03-21T12:32:19.586Z,15.17
2019-03-21T12:36:25.319Z,14.34
2019-03-21T12:40:30.999Z,16.57
2019-03-21T12:44:36.751Z,15.51
2019-03-21T12:48:42.536Z,15.29
2019-03-21T12:52:48.209Z,17.49
2019-03-21T12:56:53.904Z,18.34
2019-03-21T13:00:59.608Z,16.46
2019-03-21T13:05:11.319Z,15.66
2019-03-21T13:09:16.991Z,15.22
2019-03-21T13:13:22.748Z,16.35
2019-03-21T13:17:28.444Z,15.51
2019-03-21T13:21:34.136Z,16.50
2019-03-21T13:25:39.852Z,16.81
2019-03-21T13:29:45.517Z,15.12
2019-03-21T13:33:51.222Z,15.19
2019-03-21T13:37:56.952Z,16.28
2019-03-21T13:42:02.648Z,14.21
2019-03-21T13:46:08.397Z,14.32
2019-03-21T13:50:14.261Z,14.55
2019-03-21T13:54:19.978Z,14.39
2019-03-21T13:58:25.670Z,14.52
2019-03-21T14:02:31.473Z,15.02
2019-03-21T14:06:37.302Z,13.58
2019-03-21T14:10:44.868Z,16.19
2019-03-21T14:14:50.548Z,14.87
2019-03-21T14:18:56.234Z,15.47
2019-03-21T14:23:02.008Z,14.66
2019-03-21T14:27:07.700Z,15.09
2019-03-21T14:31:13.403Z,16.43
2019-03-21T14:35:20.524Z,17.40
2019-03-21T14:39:26.201Z,15.86
2019-03-21T14:43:31.898Z,15.17
2019-03-21T14:47:37.730Z,16.60
2019-03-21T14:51:43.445Z,17.51
2019-03-21T14:55:49.213Z,17.61
2019-03-21T14:59:54.901Z,17.06
2019-03-21T15:04:00.601Z,16.83
2019-03-21T15:08:07.476Z,17.46
2019-03-21T15:12:13.148Z,19.37
2019-03-21T15:16:18.856Z,20.59
2019-03-21T15:20:24.560Z,18.46
2019-03-21T15:24:30.275Z,20.72
2019-03-21T15:28:35.970Z,22.78
2019-03-21T15:32:41.993Z,20.87
2019-03-21T15:36:47.759Z,18.80
2019-03-21T15:40:53.491Z,20.48
2019-03-21T15:45:15.424Z,23.06
2019-03-21T15:49:06.551Z,21.78
2019-03-21T15:53:12.296Z,20.83
2019-03-21T15:57:18.009Z,20.14
2019-03-21T16:01:23.696Z,19.56
2019-03-21T16:05:29.395Z,19.55
2019-03-21T16:09:35.098Z,22.84
2019-03-21T16:13:40.775Z,22.29
2019-03-21T16:17:46.467Z,22.76
2019-03-21T16:21:52.188Z,22.99
2019-03-21T16:25:57.867Z,22.74
2019-03-21T16:30:05.033Z,24.24
2019-03-21T16:34:10.703Z,23.58
2019-03-21T16:38:16.400Z,21.99
2019-03-21T16:42:22.143Z,23.89
2019-03-21T16:46:27.906Z,22.42
2019-03-21T16:50:33.615Z,24.23
2019-03-21T16:54:39.305Z,22.62
2019-03-21T16:58:48.151Z,23.22
2019-03-21T17:02:52.390Z,22.63
2019-03-21T17:06:58.087Z,23.20
2019-03-21T17:11:03.844Z,23.54
2019-03-21T17:15:11.658Z,25.31
2019-03-21T17:19:17.362Z,23.84
2019-03-21T17:23:23.113Z,25.15
2019-03-21T17:27:28.822Z,26.79
2019-03-21T17:31:34.490Z,26.18
2019-03-21T17:35:40.178Z,23.91
2019-03-21T17:39:45.883Z,24.32
2019-03-21T17:43:51.591Z,25.04
2019-03-21T17:48:35.398Z,25.58
2019-03-21T17:52:41.080Z,25.09
2019-03-21T17:56:48.547Z,25.88
2019-03-21T18:00:54.260Z,27.38
2019-03-21T18:05:00.043Z,27.88
2019-03-21T18:09:08.207Z,27.29
2019-03-21T18:13:15.461Z,27.48
2019-03-21T18:17:21.144Z,29.37
2019-03-21T18:21:26.917Z,28.65
2019-03-21T18:25:32.614Z,28.72
2019-03-21T18:29:38.315Z,28.81
2019-03-21T18:33:44.954Z,28.10
2019-03-21T18:37:50.743Z,28.43
2019-03-21T18:41:56.428Z,30.85
2019-03-21T18:46:02.155Z,31.06
2019-03-21T18:50:12.093Z,30.35
2019-03-21T18:54:17.751Z,29.96
2019-03-21T18:58:23.535Z,31.42
2019-03-21T19:02:29.263Z,31.14
2019-03-21T19:06:35.051Z,30.91
2019-03-21T19:10:40.744Z,31.02
2019-03-21T19:14:46.421Z,30.57
2019-03-21T19:18:52.121Z,30.90
2019-03-21T19:22:57.844Z,32.79
2019-03-21T19:27:03.549Z,31.77
2019-03-21T19:31:09.268Z,30.33
2019-03-21T19:35:15.187Z,34.97
2019-03-21T19:39:20.897Z,32.88
2019-03-21T19:43:26.735Z,33.44
2019-03-21T19:47:32.442Z,32.52
2019-03-21T19:51:39.248Z,35.36
2019-03-21T19:55:46.628Z,33.81
2019-03-21T19:59:52.393Z,32.33
2019-03-21T20:03:58.161Z,32.76
2019-03-21T20:08:03.951Z,33.62
2019-03-21T20:12:09.732Z,34.21
2019-03-21T20:16:15.438Z,35.50
2019-03-21T20:20:21.325Z,34.24
2019-03-21T20:24:27.147Z,36.66
2019-03-21T20:28:32.848Z,32.46
2019-03-21T20:32:38.540Z,34.75
2019-03-21T20:36:44.260Z,35.54
2019-03-21T20:40:50.021Z,36.29
2019-03-21T20:44:55.717Z,33.46
2019-03-21T20:49:02.100Z,38.35
2019-03-21T20:53:07.813Z,34.77
2019-03-21T20:57:13.516Z,33.66
2019-03-21T21:01:19.265Z,35.68
2019-03-21T21:05:25.167Z,34.98
2019-03-21T21:09:30.919Z,36.44
2019-03-21T21:13:36.658Z,36.46
2019-03-21T21:17:43.195Z,35.18
2019-03-21T21:21:50.041Z,36.92
2019-03-21T21:26:05.054Z,35.36
2019-03-21T21:30:03.215Z,34.46
2019-03-21T21:34:08.983Z,33.34
2019-03-21T21:38:14.678Z,34.46
2019-03-21T21:42:20.378Z,38.84
2019-03-21T21:46:26.164Z,39.46
2019-03-21T21:50:31.937Z,40.09
2019-03-21T21:54:37.702Z,39.32
2019-03-21T21:58:43.441Z,41.00
2019-03-21T22:02:49.148Z,35.68
2019-03-21T22:06:54.819Z,34.59
2019-03-21T22:11:00.513Z,37.27
2019-03-21T22:15:16.362Z,38.26
2019-03-21T22:19:22.073Z,38.22
2019-03-21T22:23:27.754Z,35.83
2019-03-21T22:27:33.440Z,35.37
2019-03-21T22:31:39.167Z,39.16
2019-03-21T22:35:44.858Z,36.27
2019-03-21T22:39:50.555Z,38.90
2019-03-21T22:43:56.258Z,35.52
2019-03-21T22:48:01.943Z,40.64
2019-03-21T22:52:07.648Z,39.73
2019-03-21T22:56:13.386Z,35.94
2019-03-21T23:00:24.705Z,39.46
2019-03-21T23:04:32.017Z,36.19
2019-03-21T23:12:44.462Z,38.34
2019-03-21T23:16:50.154Z,36.44
2019-03-21T23:20:55.878Z,38.12
2019-03-21T23:25:01.565Z,38.77
2019-03-21T23:29:07.314Z,39.84
2019-03-21T23:33:13.077Z,37.94
2019-03-21T23:37:18.790Z,40.77
2019-03-21T23:41:24.504Z,41.26
2019-03-21T23:45:30.171Z,38.45
2019-03-21T23:49:35.865Z,39.50
2019-03-21T23:53:41.572Z,40.26
2019-03-21T23:57:47.262Z,41.42
